Largo, MD

10:22 AM EDT on May 26, 2015 (GMT -0400)
Cabin Branch Acres | | Change Station
CLOSE
Current Station
Personal Weather Station
Location: Upper Marlboro, MD
Elevation: 95 ft
Nearby Weather Stations

Elev 95 ft 38.85 °N, 76.80 °W | Updated 26 seconds ago

Clear
Clear
78.4 °F
Feels Like 80 °F
N
3.6
Wind Variable Wind from SW
Gusts 4.9 mph

Today
High -- | Low -- °F
--% Chance of Precip.
Yesterday
High -- | Low -- °F
Precip. -- in
5:46 AM 8:21 PM
First Quarter, 58% visible
Pressure 30.25 in
Visibility 10.0 miles
Clouds Clear
Heat Index 80 °F
Dew Point 63 °F
Humidity 59%
Rainfall 0.00 in
Snow Depth Not available.
UV 6.0 out of 12
Pollen 8.20 out of 12
Air Quality Not available.
Flu Activity Sporadic
METAR KADW 261358Z AUTO 21007KT 10SM CLR 24/18 A3023 RMK AO2 SLP242 T02440179 VISNO RWY01R $

More Conditions Fewer Conditions

Pressure 30.25 in
Visibility 10.0 miles
Clouds Clear
Heat Index 80 °F
Dew Point 63 °F
Humidity 59%
Rainfall 0.00 in
Snow Depth Not available.
UV 6.0 out of 12
Pollen 8.20 out of 12
Air Quality Not available.
Flu Activity Sporadic
METAR KADW 261358Z AUTO 21007KT 10SM CLR 24/18 A3023 RMK AO2 SLP242 T02440179 VISNO RWY01R $

More Conditions Fewer Conditions

10-Day Weather Forecast

Almanac

Astronomy

May. 26, 2015 Rise Set
Actual Time
Civil Twilight
Nautical Twilight
Astronomical Twilight
Moon
Length of Visible Light
Length of Day
Tomorrow will be .
, % of the Moon is Illuminated

Today's Extremes

State Highs State Lows

Community

WunderPhotos

Upload Photos

1,824,342 photos uploaded!

WunderBlogs® & News

Nearby

Air Quality

  Air Quality AQ Index Pollutant
Not available.

Snow Depth

Station Depth Elevation

Earthquake Activity

City Distance Mag. Time & Date
Minimum magnitude displayed is 2.5.

Coastal Water Temperatures

Place Temperature

Stations

Nearby Weather Stations

Station Location Temp. Windchill Dew Point Humidity Wind Precip. Elev Updated Type